Chemical Pioneer — KAFO — position and weather

sailwx.info

Track history (hours):
 
Tides and Currents Weather Stations Pressure Air Temp Water Temp Dewpoint Dewpoint Depression Visibility Wind Speed Wind Dir Waves Ship Positions

Chemical Pioneer

Owner: US Shipping Corp, Edison, NJ. More information available from US FCC via Universal Licensing System and Coast Guard Vessel Documentation Center.

Last reported at 2016-Feb-08 19:30 UTC. Time now 2016-Feb-08 23:18 UTC.
Position N 36°49' W 075°47'.

Type: Tanker. MMSI: 366032000.

Date/timePositionNaut miles runAvg speedWind from/ knotsBaromVisibWave heightAir tempDewpointWater temp
2016-Feb-08 19:30N 36°49' W 075°47'9 9.2
2016-Feb-08 18:34N 36°54' W 075°55'9 9.0
2016-Feb-08 17:33N 37°01' W 076°03'59 2.1
2016-Feb-07 12:33N 38°00' W 076°13'1615.7
2016-Feb-07 11:33N 38°16' W 076°17'1815.8
2016-Feb-07 10:25N 38°32' W 076°26'1314.9
2016-Feb-07 09:33N 38°45' W 076°26'1414.4
2016-Feb-07 08:34N 38°59' W 076°23'1312.7
2016-Feb-07 07:34N 39°11' W 076°28'7 7.4
2016-Feb-07 06:34N 39°16' W 076°34'0 0.0
2016-Feb-07 05:33N 39°16' W 076°34'0 0.0
2016-Feb-07 04:33N 39°16' W 076°34'0 0.0
2016-Feb-07 03:33N 39°16' W 076°34'0 0.0
2016-Feb-07 02:30N 39°16' W 076°34'0 0.0
2016-Feb-07 01:33N 39°16' W 076°34'0 0.0
2016-Feb-06 23:24N 39°16' W 076°34'0 0.0
2016-Feb-06 22:33N 39°16' W 076°34'0 0.0
2016-Feb-06 20:30N 39°16' W 076°34'0 0.0
2016-Feb-06 16:18N 39°16' W 076°34'0 0.0
2016-Feb-06 14:12N 39°16' W 076°34'0 0.0
2016-Feb-06 12:18N 39°16' W 076°34'0 0.0
2016-Feb-06 11:30N 39°16' W 076°34'0 0.0
2016-Feb-06 10:30N 39°16' W 076°34'0 0.0
2016-Feb-06 09:30N 39°16' W 076°34'0 0.0
2016-Feb-06 08:30N 39°16' W 076°34'0 0.0
2016-Feb-06 07:18N 39°16' W 076°34'0 0.0
2016-Feb-06 06:12N 39°16' W 076°34'0 0.0
2016-Feb-06 03:30N 39°16' W 076°34'0 0.0
2016-Feb-06 02:24N 39°16' W 076°34'0 0.0
2016-Feb-06 01:24N 39°16' W 076°34'0 0.0
2016-Feb-06 00:30N 39°16' W 076°34'0 0.0
2016-Feb-05 23:18N 39°16' W 076°34'0 0.0
2016-Feb-05 05:03N 39°16' W 076°34'0 0.0
2016-Feb-05 04:33N 39°16' W 076°34'0 0.0
2016-Feb-05 01:21N 39°16' W 076°34'0 0.3
2016-Feb-05 00:33N 39°16' W 076°35'3 2.7
2016-Feb-04 23:34N 39°14' W 076°33'5 4.9
2016-Feb-04 22:33N 39°11' W 076°27'8 8.2
2016-Feb-04 21:33N 39°11' W 076°17'1110.7
2016-Feb-04 20:33N 39°21' W 076°11'1211.9
2016-Feb-04 19:33N 39°28' W 075°58'9 8.7
2016-Feb-04 18:33N 39°32' W 075°48'9 9.3
2016-Feb-04 17:33N 39°33' W 075°37'10 9.7
2016-Feb-04 16:33N 39°42' W 075°31'1212.0
2016-Feb-04 15:33N 39°51' W 075°20'8 7.7
2016-Feb-04 14:33N 39°53' W 075°11'7 6.8
2016-Feb-04 13:33N 39°59' W 075°06'0 0.3
2016-Feb-04 12:33N 39°59' W 075°05'0 0.0
2016-Feb-04 11:33N 39°59' W 075°05'0 0.0
2016-Feb-04 10:33N 39°59' W 075°05'0 0.0
2016-Feb-04 09:33N 39°59' W 075°05'0 0.0
2016-Feb-04 08:33N 39°59' W 075°05'0 0.0
2016-Feb-04 07:33N 39°59' W 075°05'0 0.0
2016-Feb-04 06:33N 39°59' W 075°05'0 0.0
2016-Feb-04 05:33N 39°59' W 075°05'0 0.0
2016-Feb-04 04:33N 39°59' W 075°05'0 0.0
2016-Feb-04 03:33N 39°59' W 075°05'0 0.0
2016-Feb-04 02:33N 39°59' W 075°05'0 0.0
2016-Feb-04 01:33N 39°59' W 075°05'0 0.0
2016-Feb-04 00:33N 39°59' W 075°05'0 0.0
2016-Feb-03 23:33N 39°59' W 075°05'0 0.0
2016-Feb-03 22:07N 39°59' W 075°05'0 0.0
2016-Feb-03 21:33N 39°59' W 075°05'0 0.0
2016-Feb-03 20:33N 39°59' W 075°05'0 0.0
2016-Feb-03 19:33N 39°59' W 075°05'0 0.0
2016-Feb-03 18:33N 39°59' W 075°05'0 0.0
2016-Feb-03 17:33N 39°59' W 075°05'0 0.0
2016-Feb-03 16:33N 39°59' W 075°05'0 0.0
2016-Feb-03 15:33N 39°59' W 075°05'0 0.0
2016-Feb-03 14:33N 39°59' W 075°05'0 0.0
2016-Feb-03 13:33N 39°59' W 075°05'0 0.0
2016-Feb-03 12:33N 39°59' W 075°05'0 0.0
2016-Feb-03 11:33N 39°59' W 075°05'0 0.0
2016-Feb-03 10:33N 39°59' W 075°05'0 0.0
2016-Feb-03 09:33N 39°59' W 075°05'0 0.0
2016-Feb-03 08:33N 39°59' W 075°05'0 0.0
2016-Feb-03 07:33N 39°59' W 075°05'0 0.0
2016-Feb-03 06:33N 39°59' W 075°05'0 0.0
2016-Feb-03 05:33N 39°59' W 075°05'0 0.0
2016-Feb-03 04:33N 39°59' W 075°05'0 0.0
2016-Feb-03 03:33N 39°59' W 075°05'0 0.0
2016-Feb-03 02:33N 39°59' W 075°05'0 0.0
2016-Feb-03 01:33N 39°59' W 075°05'0 0.0
2016-Feb-03 00:33N 39°59' W 075°05'0 0.0
2016-Feb-02 23:30N 39°59' W 075°05'0 0.0
2016-Feb-02 22:33N 39°59' W 075°05'0 0.0
2016-Feb-02 21:33N 39°59' W 075°05'0 0.0
2016-Feb-02 20:33N 39°59' W 075°05'0 0.0
2016-Feb-02 19:33N 39°59' W 075°05'0 0.0
2016-Feb-02 18:30N 39°59' W 075°05'0 0.0
2016-Feb-02 17:33N 39°59' W 075°05'0 0.0
2016-Feb-02 16:33N 39°59' W 075°05'0 0.0
2016-Feb-02 15:33N 39°59' W 075°05'0 0.0
2016-Feb-02 14:33N 39°59' W 075°05'0 0.4
2016-Feb-02 13:33N 39°59' W 075°06'0 0.0
2016-Feb-02 12:33N 39°59' W 075°06'0 0.0
2016-Feb-02 11:33N 39°59' W 075°06'0 0.0
2016-Feb-02 10:33N 39°59' W 075°06'0 0.0
2016-Feb-02 09:33N 39°59' W 075°06'0 0.0
2016-Feb-02 08:33N 39°59' W 075°06'0 0.0
2016-Feb-02 07:33N 39°59' W 075°06'0 0.0
2016-Feb-02 06:33N 39°59' W 075°06'0 0.0
2016-Feb-02 05:33N 39°59' W 075°06'0 0.0
2016-Feb-02 04:33N 39°59' W 075°06'0 0.0
2016-Feb-02 03:33N 39°59' W 075°06'0 0.0
2016-Feb-02 02:33N 39°59' W 075°06'0 0.0
2016-Feb-02 01:33N 39°59' W 075°06'0 0.0
2016-Feb-02 00:33N 39°59' W 075°06'0 0.0
2016-Feb-01 23:33N 39°59' W 075°06'0 0.0
2016-Feb-01 22:33N 39°59' W 075°06'0 0.0
2016-Feb-01 21:33N 39°59' W 075°06'0 0.0
2016-Feb-01 20:30N 39°59' W 075°06'0 0.0
2016-Feb-01 19:33N 39°59' W 075°06'0 0.0
2016-Feb-01 18:33N 39°59' W 075°06'0 0.0
2016-Feb-01 17:33N 39°59' W 075°06'0 0.0
2016-Feb-01 16:30N 39°59' W 075°06'0 0.0
2016-Feb-01 15:33N 39°59' W 075°06'0 0.0
2016-Feb-01 14:33N 39°59' W 075°06'0 0.0
2016-Feb-01 13:33N 39°59' W 075°06'0 0.0
2016-Feb-01 12:33N 39°59' W 075°06'0 0.0
2016-Feb-01 11:33N 39°59' W 075°06'0 0.0
2016-Feb-01 10:33N 39°59' W 075°06'0 0.0
2016-Feb-01 09:33N 39°59' W 075°06'0 0.0
2016-Feb-01 08:33N 39°59' W 075°06'0 0.0
2016-Feb-01 07:33N 39°59' W 075°06'0 0.0
2016-Feb-01 06:33N 39°59' W 075°06'0 0.0
2016-Feb-01 05:33N 39°59' W 075°06'0 0.0
2016-Feb-01 04:33N 39°59' W 075°06'0 0.0
2016-Feb-01 03:33N 39°59' W 075°06'0 0.0
2016-Feb-01 02:30N 39°59' W 075°06'0 0.0
2016-Feb-01 01:33N 39°59' W 075°06'0 0.1
2016-Feb-01 00:33N 39°58' W 075°06'0 0.5
2016-Jan-31 23:33N 39°59' W 075°05'0 0.0
2016-Jan-31 22:33N 39°59' W 075°05'1 0.7
2016-Jan-31 21:34N 39°58' W 075°06'6 5.8
2016-Jan-31 20:33N 39°53' W 075°09'1111.4
2016-Jan-31 19:33N 39°49' W 075°23'1413.8
2016-Jan-31 18:33N 39°39' W 075°34'1514.5
2016-Jan-31 17:33N 39°24' W 075°30'1615.9
2016-Jan-31 16:33N 39°12' W 075°17'1616.5
2016-Jan-31 15:33N 38°57' W 075°07'1211.6
2016-Jan-31 14:34N 38°47' W 075°00'7 7.5
2016-Jan-31 13:34N 38°48' W 074°50'7 7.3
2016-Jan-31 12:34N 38°48' W 074°41'7 7.5
2016-Jan-31 11:34N 38°48' W 074°32'8 7.9
2016-Jan-31 10:32N 38°48' W 074°21'37 7.3
2016-Jan-31 05:30N 38°48' W 073°34'13 6.5
2016-Jan-31 03:33N 38°49' W 073°18'96 3.7
2016-Jan-30 01:10N 40°23' W 073°47'5 7.0
2016-Jan-30 00:28N 40°25' W 073°53'7 7.9
2016-Jan-29 23:33N 40°29' W 074°01'11 7.7
2016-Jan-29 22:08N 40°33' W 074°14'  
Track history (hours):
 
Tides and Currents Weather Stations Pressure Air Temp Water Temp Dewpoint Dewpoint Depression Visibility Wind Speed Wind Dir Waves Ship Positions

Chemical Pioneer

Owner: US Shipping Corp, Edison, NJ. More information available from US FCC via Universal Licensing System and Coast Guard Vessel Documentation Center.

Last reported at 2016-Feb-08 19:30 UTC. Time now 2016-Feb-08 23:18 UTC.
Position N 36°49' W 075°47'.

Type: Tanker. MMSI: 366032000.

Date/timePositionNaut miles runAvg speedWind from/ knotsBaromVisibWave heightAir tempDewpointWater temp
2016-Feb-08 19:30N 36°49' W 075°47'9 9.2
2016-Feb-08 18:34N 36°54' W 075°55'9 9.0
2016-Feb-08 17:33N 37°01' W 076°03'59 2.1
2016-Feb-07 12:33N 38°00' W 076°13'1615.7
2016-Feb-07 11:33N 38°16' W 076°17'1815.8
2016-Feb-07 10:25N 38°32' W 076°26'1314.9
2016-Feb-07 09:33N 38°45' W 076°26'1414.4
2016-Feb-07 08:34N 38°59' W 076°23'1312.7
2016-Feb-07 07:34N 39°11' W 076°28'7 7.4
2016-Feb-07 06:34N 39°16' W 076°34'0 0.0
2016-Feb-07 05:33N 39°16' W 076°34'0 0.0
2016-Feb-07 04:33N 39°16' W 076°34'0 0.0
2016-Feb-07 03:33N 39°16' W 076°34'0 0.0
2016-Feb-07 02:30N 39°16' W 076°34'0 0.0
2016-Feb-07 01:33N 39°16' W 076°34'0 0.0
2016-Feb-06 23:24N 39°16' W 076°34'0 0.0
2016-Feb-06 22:33N 39°16' W 076°34'0 0.0
2016-Feb-06 20:30N 39°16' W 076°34'0 0.0
2016-Feb-06 16:18N 39°16' W 076°34'0 0.0
2016-Feb-06 14:12N 39°16' W 076°34'0 0.0
2016-Feb-06 12:18N 39°16' W 076°34'0 0.0
2016-Feb-06 11:30N 39°16' W 076°34'0 0.0
2016-Feb-06 10:30N 39°16' W 076°34'0 0.0
2016-Feb-06 09:30N 39°16' W 076°34'0 0.0
2016-Feb-06 08:30N 39°16' W 076°34'0 0.0
2016-Feb-06 07:18N 39°16' W 076°34'0 0.0
2016-Feb-06 06:12N 39°16' W 076°34'0 0.0
2016-Feb-06 03:30N 39°16' W 076°34'0 0.0
2016-Feb-06 02:24N 39°16' W 076°34'0 0.0
2016-Feb-06 01:24N 39°16' W 076°34'0 0.0
2016-Feb-06 00:30N 39°16' W 076°34'0 0.0
2016-Feb-05 23:18N 39°16' W 076°34'0 0.0
2016-Feb-05 05:03N 39°16' W 076°34'0 0.0
2016-Feb-05 04:33N 39°16' W 076°34'0 0.0
2016-Feb-05 01:21N 39°16' W 076°34'0 0.3
2016-Feb-05 00:33N 39°16' W 076°35'3 2.7
2016-Feb-04 23:34N 39°14' W 076°33'5 4.9
2016-Feb-04 22:33N 39°11' W 076°27'8 8.2
2016-Feb-04 21:33N 39°11' W 076°17'1110.7
2016-Feb-04 20:33N 39°21' W 076°11'1211.9
2016-Feb-04 19:33N 39°28' W 075°58'9 8.7
2016-Feb-04 18:33N 39°32' W 075°48'9 9.3
2016-Feb-04 17:33N 39°33' W 075°37'10 9.7
2016-Feb-04 16:33N 39°42' W 075°31'1212.0
2016-Feb-04 15:33N 39°51' W 075°20'8 7.7
2016-Feb-04 14:33N 39°53' W 075°11'7 6.8
2016-Feb-04 13:33N 39°59' W 075°06'0 0.3
2016-Feb-04 12:33N 39°59' W 075°05'0 0.0
2016-Feb-04 11:33N 39°59' W 075°05'0 0.0
2016-Feb-04 10:33N 39°59' W 075°05'0 0.0
2016-Feb-04 09:33N 39°59' W 075°05'0 0.0
2016-Feb-04 08:33N 39°59' W 075°05'0 0.0
2016-Feb-04 07:33N 39°59' W 075°05'0 0.0
2016-Feb-04 06:33N 39°59' W 075°05'0 0.0
2016-Feb-04 05:33N 39°59' W 075°05'0 0.0
2016-Feb-04 04:33N 39°59' W 075°05'0 0.0
2016-Feb-04 03:33N 39°59' W 075°05'0 0.0
2016-Feb-04 02:33N 39°59' W 075°05'0 0.0
2016-Feb-04 01:33N 39°59' W 075°05'0 0.0
2016-Feb-04 00:33N 39°59' W 075°05'0 0.0
2016-Feb-03 23:33N 39°59' W 075°05'0 0.0
2016-Feb-03 22:07N 39°59' W 075°05'0 0.0
2016-Feb-03 21:33N 39°59' W 075°05'0 0.0
2016-Feb-03 20:33N 39°59' W 075°05'0 0.0
2016-Feb-03 19:33N 39°59' W 075°05'0 0.0
2016-Feb-03 18:33N 39°59' W 075°05'0 0.0
2016-Feb-03 17:33N 39°59' W 075°05'0 0.0
2016-Feb-03 16:33N 39°59' W 075°05'0 0.0
2016-Feb-03 15:33N 39°59' W 075°05'0 0.0
2016-Feb-03 14:33N 39°59' W 075°05'0 0.0
2016-Feb-03 13:33N 39°59' W 075°05'0 0.0
2016-Feb-03 12:33N 39°59' W 075°05'0 0.0
2016-Feb-03 11:33N 39°59' W 075°05'0 0.0
2016-Feb-03 10:33N 39°59' W 075°05'0 0.0
2016-Feb-03 09:33N 39°59' W 075°05'0 0.0
2016-Feb-03 08:33N 39°59' W 075°05'0 0.0
2016-Feb-03 07:33N 39°59' W 075°05'0 0.0
2016-Feb-03 06:33N 39°59' W 075°05'0 0.0
2016-Feb-03 05:33N 39°59' W 075°05'0 0.0
2016-Feb-03 04:33N 39°59' W 075°05'0 0.0
2016-Feb-03 03:33N 39°59' W 075°05'0 0.0
2016-Feb-03 02:33N 39°59' W 075°05'0 0.0
2016-Feb-03 01:33N 39°59' W 075°05'0 0.0
2016-Feb-03 00:33N 39°59' W 075°05'0 0.0
2016-Feb-02 23:30N 39°59' W 075°05'0 0.0
2016-Feb-02 22:33N 39°59' W 075°05'0 0.0
2016-Feb-02 21:33N 39°59' W 075°05'0 0.0
2016-Feb-02 20:33N 39°59' W 075°05'0 0.0
2016-Feb-02 19:33N 39°59' W 075°05'0 0.0
2016-Feb-02 18:30N 39°59' W 075°05'0 0.0
2016-Feb-02 17:33N 39°59' W 075°05'0 0.0
2016-Feb-02 16:33N 39°59' W 075°05'0 0.0
2016-Feb-02 15:33N 39°59' W 075°05'0 0.0
2016-Feb-02 14:33N 39°59' W 075°05'0 0.4
2016-Feb-02 13:33N 39°59' W 075°06'0 0.0
2016-Feb-02 12:33N 39°59' W 075°06'0 0.0
2016-Feb-02 11:33N 39°59' W 075°06'0 0.0
2016-Feb-02 10:33N 39°59' W 075°06'0 0.0
2016-Feb-02 09:33N 39°59' W 075°06'0 0.0
2016-Feb-02 08:33N 39°59' W 075°06'0 0.0
2016-Feb-02 07:33N 39°59' W 075°06'0 0.0
2016-Feb-02 06:33N 39°59' W 075°06'0 0.0
2016-Feb-02 05:33N 39°59' W 075°06'0 0.0
2016-Feb-02 04:33N 39°59' W 075°06'0 0.0
2016-Feb-02 03:33N 39°59' W 075°06'0 0.0
2016-Feb-02 02:33N 39°59' W 075°06'0 0.0
2016-Feb-02 01:33N 39°59' W 075°06'0 0.0
2016-Feb-02 00:33N 39°59' W 075°06'0 0.0
2016-Feb-01 23:33N 39°59' W 075°06'0 0.0
2016-Feb-01 22:33N 39°59' W 075°06'0 0.0
2016-Feb-01 21:33N 39°59' W 075°06'0 0.0
2016-Feb-01 20:30N 39°59' W 075°06'0 0.0
2016-Feb-01 19:33N 39°59' W 075°06'0 0.0
2016-Feb-01 18:33N 39°59' W 075°06'0 0.0
2016-Feb-01 17:33N 39°59' W 075°06'0 0.0
2016-Feb-01 16:30N 39°59' W 075°06'0 0.0
2016-Feb-01 15:33N 39°59' W 075°06'0 0.0
2016-Feb-01 14:33N 39°59' W 075°06'0 0.0
2016-Feb-01 13:33N 39°59' W 075°06'0 0.0
2016-Feb-01 12:33N 39°59' W 075°06'0 0.0
2016-Feb-01 11:33N 39°59' W 075°06'0 0.0
2016-Feb-01 10:33N 39°59' W 075°06'0 0.0
2016-Feb-01 09:33N 39°59' W 075°06'0 0.0
2016-Feb-01 08:33N 39°59' W 075°06'0 0.0
2016-Feb-01 07:33N 39°59' W 075°06'0 0.0
2016-Feb-01 06:33N 39°59' W 075°06'0 0.0
2016-Feb-01 05:33N 39°59' W 075°06'0 0.0
2016-Feb-01 04:33N 39°59' W 075°06'0 0.0
2016-Feb-01 03:33N 39°59' W 075°06'0 0.0
2016-Feb-01 02:30N 39°59' W 075°06'0 0.0
2016-Feb-01 01:33N 39°59' W 075°06'0 0.1
2016-Feb-01 00:33N 39°58' W 075°06'0 0.5
2016-Jan-31 23:33N 39°59' W 075°05'0 0.0
2016-Jan-31 22:33N 39°59' W 075°05'1 0.7
2016-Jan-31 21:34N 39°58' W 075°06'6 5.8
2016-Jan-31 20:33N 39°53' W 075°09'1111.4
2016-Jan-31 19:33N 39°49' W 075°23'1413.8
2016-Jan-31 18:33N 39°39' W 075°34'1514.5
2016-Jan-31 17:33N 39°24' W 075°30'1615.9
2016-Jan-31 16:33N 39°12' W 075°17'1616.5
2016-Jan-31 15:33N 38°57' W 075°07'1211.6
2016-Jan-31 14:34N 38°47' W 075°00'7 7.5
2016-Jan-31 13:34N 38°48' W 074°50'7 7.3
2016-Jan-31 12:34N 38°48' W 074°41'7 7.5
2016-Jan-31 11:34N 38°48' W 074°32'8 7.9
2016-Jan-31 10:32N 38°48' W 074°21'37 7.3
2016-Jan-31 05:30N 38°48' W 073°34'13 6.5
2016-Jan-31 03:33N 38°49' W 073°18'96 3.7
2016-Jan-30 01:10N 40°23' W 073°47'5 7.0
2016-Jan-30 00:28N 40°25' W 073°53'7 7.9
2016-Jan-29 23:33N 40°29' W 074°01'11 7.7
2016-Jan-29 22:08N 40°33' W 074°14'  

Dump ship's entire track history